createdAt,value
2022-12-31T00:00:16.041Z,972.84
2022-12-31T00:01:16.080Z,972.79
2022-12-31T00:02:16.100Z,972.75
2022-12-31T00:03:16.170Z,972.78
2022-12-31T00:04:15.980Z,972.90
2022-12-31T00:05:15.977Z,972.83
2022-12-31T00:06:15.950Z,972.75
2022-12-31T00:07:15.988Z,972.86
2022-12-31T00:08:15.917Z,972.96
2022-12-31T00:09:15.925Z,972.96
2022-12-31T00:10:15.895Z,972.94
2022-12-31T00:11:15.908Z,973.00
2022-12-31T00:12:15.887Z,972.99
2022-12-31T00:13:15.907Z,973.04
2022-12-31T00:14:15.856Z,973.03
2022-12-31T00:15:15.873Z,973.05
2022-12-31T00:16:15.822Z,973.03
2022-12-31T00:17:15.833Z,973.12
2022-12-31T00:18:15.793Z,973.06
2022-12-31T00:19:15.822Z,973.11
2022-12-31T00:20:15.769Z,973.12
2022-12-31T00:21:15.779Z,973.11
2022-12-31T00:22:15.742Z,973.08
2022-12-31T00:23:15.739Z,973.07
2022-12-31T00:24:15.741Z,973.09
2022-12-31T00:25:15.771Z,973.07
2022-12-31T00:26:15.697Z,973.15
2022-12-31T00:27:15.713Z,973.12
2022-12-31T00:28:15.665Z,973.19
2022-12-31T00:29:15.705Z,973.24
2022-12-31T00:30:15.651Z,973.17
2022-12-31T00:31:15.712Z,973.17
2022-12-31T00:32:15.623Z,973.20
2022-12-31T00:33:15.645Z,973.12
2022-12-31T00:34:15.584Z,973.19
2022-12-31T00:35:15.636Z,973.17
2022-12-31T00:36:15.614Z,973.09
2022-12-31T00:37:15.571Z,973.14
2022-12-31T00:38:15.542Z,973.17
2022-12-31T00:39:15.564Z,973.09
2022-12-31T00:40:15.519Z,973.12
2022-12-31T00:41:15.522Z,973.11
2022-12-31T00:42:15.515Z,973.09
2022-12-31T00:43:15.508Z,973.10
2022-12-31T00:44:15.470Z,973.07
2022-12-31T00:45:15.524Z,973.05
2022-12-31T00:46:15.518Z,973.07
2022-12-31T00:47:15.447Z,973.12
2022-12-31T00:48:15.416Z,973.11
2022-12-31T00:49:15.435Z,973.08
2022-12-31T00:50:15.390Z,973.11
2022-12-31T00:51:15.417Z,973.05
2022-12-31T00:52:15.395Z,973.11
2022-12-31T00:53:15.378Z,973.11
2022-12-31T00:54:15.357Z,973.08
2022-12-31T00:55:15.356Z,973.08
2022-12-31T00:56:15.338Z,973.13
2022-12-31T00:57:15.329Z,973.10
2022-12-31T00:58:15.283Z,973.05
2022-12-31T00:59:15.321Z,973.05
2022-12-31T01:00:15.260Z,973.04
2022-12-31T01:01:15.385Z,973.03
2022-12-31T01:02:15.541Z,973.02
2022-12-31T01:03:15.310Z,972.98
2022-12-31T01:04:15.248Z,972.99
2022-12-31T01:05:15.236Z,973.10
2022-12-31T01:06:15.198Z,973.13
2022-12-31T01:07:15.209Z,973.16
2022-12-31T01:08:15.172Z,973.08
2022-12-31T01:09:15.201Z,973.09
2022-12-31T01:10:15.135Z,973.17
2022-12-31T01:11:15.135Z,973.17
2022-12-31T01:12:15.110Z,973.11
2022-12-31T01:13:15.114Z,973.15
2022-12-31T01:14:15.101Z,973.20
2022-12-31T01:15:15.121Z,973.16
2022-12-31T01:16:15.111Z,973.16
2022-12-31T01:17:15.076Z,973.27
2022-12-31T01:18:15.033Z,973.29
2022-12-31T01:19:15.071Z,973.33
2022-12-31T01:20:15.040Z,973.38
2022-12-31T01:21:15.011Z,973.39
2022-12-31T01:22:14.988Z,973.43
2022-12-31T01:23:14.999Z,973.46
2022-12-31T01:24:14.971Z,973.43
2022-12-31T01:25:14.983Z,973.38
2022-12-31T01:26:14.960Z,973.39
2022-12-31T01:27:14.952Z,973.51
2022-12-31T01:28:14.907Z,973.48
2022-12-31T01:29:14.956Z,973.43
2022-12-31T01:30:14.886Z,973.50
2022-12-31T01:31:15.105Z,973.48
2022-12-31T01:32:14.863Z,973.48
2022-12-31T01:33:14.866Z,973.43
2022-12-31T01:34:14.833Z,973.44
2022-12-31T01:35:14.939Z,973.51
2022-12-31T01:36:16.850Z,973.47
2022-12-31T01:37:14.852Z,973.45
2022-12-31T01:38:14.785Z,973.46
2022-12-31T01:39:14.812Z,973.51
2022-12-31T01:40:14.770Z,973.53
2022-12-31T01:41:21.828Z,973.49
2022-12-31T01:42:16.536Z,973.48
2022-12-31T01:43:14.742Z,973.37
2022-12-31T01:44:14.748Z,973.43
2022-12-31T01:45:14.728Z,973.42
2022-12-31T01:46:14.713Z,973.45
2022-12-31T01:47:14.730Z,973.50
2022-12-31T01:48:14.650Z,973.58
2022-12-31T01:49:14.694Z,973.46
2022-12-31T01:50:14.675Z,973.38
2022-12-31T01:51:14.659Z,973.30
2022-12-31T01:52:14.637Z,973.33
2022-12-31T01:53:14.636Z,973.38
2022-12-31T01:54:14.616Z,973.34
2022-12-31T01:55:14.634Z,973.28
2022-12-31T01:56:14.582Z,973.33
2022-12-31T01:57:14.578Z,973.29
2022-12-31T01:58:14.564Z,973.37
2022-12-31T01:59:14.573Z,973.36
2022-12-31T02:00:14.520Z,973.43
2022-12-31T02:01:14.722Z,973.42
2022-12-31T02:02:14.553Z,973.40
2022-12-31T02:03:14.551Z,973.36
2022-12-31T02:04:14.452Z,973.41
2022-12-31T02:05:14.501Z,973.41
2022-12-31T02:06:14.475Z,973.47
2022-12-31T02:07:14.510Z,973.41
2022-12-31T02:08:14.422Z,973.42
2022-12-31T02:09:14.426Z,973.45
2022-12-31T02:10:14.389Z,973.45
2022-12-31T02:11:14.432Z,973.48
2022-12-31T02:12:14.393Z,973.48
2022-12-31T02:13:14.359Z,973.51
2022-12-31T02:14:14.356Z,973.51
2022-12-31T02:15:14.345Z,973.49
2022-12-31T02:16:14.371Z,973.47
2022-12-31T02:17:14.361Z,973.37
2022-12-31T02:18:14.303Z,973.43
2022-12-31T02:19:14.314Z,973.49
2022-12-31T02:20:14.274Z,973.46
2022-12-31T02:21:14.276Z,973.54
2022-12-31T02:22:14.249Z,973.53
2022-12-31T02:23:14.276Z,973.60
2022-12-31T02:24:14.213Z,973.67
2022-12-31T02:25:14.238Z,973.67
2022-12-31T02:26:14.193Z,973.64
2022-12-31T02:27:14.182Z,973.56
2022-12-31T02:28:14.185Z,973.56
2022-12-31T02:29:14.172Z,973.55
2022-12-31T02:30:14.165Z,973.49
2022-12-31T02:31:16.058Z,973.49
2022-12-31T02:32:14.124Z,973.55
2022-12-31T02:33:14.149Z,973.51
2022-12-31T02:34:14.077Z,973.50
2022-12-31T02:35:14.158Z,973.44
2022-12-31T02:36:14.061Z,973.50
2022-12-31T02:37:14.074Z,973.49
2022-12-31T02:38:14.040Z,973.51
2022-12-31T02:39:14.041Z,973.45
2022-12-31T02:40:14.059Z,973.47
2022-12-31T02:41:14.028Z,973.40
2022-12-31T02:42:13.982Z,973.44
2022-12-31T02:43:14.000Z,973.34
2022-12-31T02:44:13.949Z,973.37
2022-12-31T02:45:13.970Z,973.47
2022-12-31T02:46:13.990Z,973.51
2022-12-31T02:47:13.970Z,973.63
2022-12-31T02:48:13.915Z,973.70
2022-12-31T02:49:13.929Z,973.63
2022-12-31T02:50:13.896Z,973.75
2022-12-31T02:51:13.930Z,973.70
2022-12-31T02:52:13.853Z,973.66
2022-12-31T02:53:13.852Z,973.66
2022-12-31T02:54:13.850Z,973.52
2022-12-31T02:55:13.845Z,973.62
2022-12-31T02:56:13.808Z,973.55
2022-12-31T02:57:13.838Z,973.62
2022-12-31T02:58:13.831Z,973.47
2022-12-31T02:59:13.809Z,973.51
2022-12-31T03:00:13.757Z,973.57
2022-12-31T03:01:13.848Z,973.60
2022-12-31T03:02:13.933Z,973.59
2022-12-31T03:03:13.750Z,973.58
2022-12-31T03:04:13.736Z,973.55
2022-12-31T03:05:13.719Z,973.56
2022-12-31T03:06:13.685Z,973.54
2022-12-31T03:07:13.688Z,973.53
2022-12-31T03:08:13.688Z,973.46
2022-12-31T03:09:13.662Z,973.49
2022-12-31T03:10:13.629Z,973.48
2022-12-31T03:11:13.649Z,973.58
2022-12-31T03:12:13.607Z,973.47
2022-12-31T03:13:13.629Z,973.48
2022-12-31T03:14:13.577Z,973.46
2022-12-31T03:15:13.598Z,973.61
2022-12-31T03:16:13.599Z,973.51
2022-12-31T03:17:13.556Z,973.51
2022-12-31T03:18:13.553Z,973.55
2022-12-31T03:19:13.523Z,973.52
2022-12-31T03:20:13.536Z,973.52
2022-12-31T03:21:13.501Z,973.55
2022-12-31T03:22:13.484Z,973.51
2022-12-31T03:23:13.493Z,973.47
2022-12-31T03:24:13.470Z,973.49
2022-12-31T03:25:13.481Z,973.51
2022-12-31T03:26:13.426Z,973.55
2022-12-31T03:27:13.449Z,973.60
2022-12-31T03:28:13.418Z,973.60
2022-12-31T03:29:13.427Z,973.62
2022-12-31T03:30:13.378Z,973.59
2022-12-31T03:31:13.481Z,973.61
2022-12-31T03:32:13.347Z,973.63
2022-12-31T03:33:13.362Z,973.64
2022-12-31T03:34:13.311Z,973.69
2022-12-31T03:35:13.376Z,973.72
2022-12-31T03:36:13.355Z,973.69
2022-12-31T03:37:13.310Z,973.68
2022-12-31T03:38:13.306Z,973.60
2022-12-31T03:39:13.282Z,973.64
2022-12-31T03:40:13.255Z,973.65
2022-12-31T03:41:13.245Z,973.68
2022-12-31T03:42:13.265Z,973.69
2022-12-31T03:43:13.224Z,973.70
2022-12-31T03:44:13.211Z,973.71
2022-12-31T03:45:13.211Z,973.70
2022-12-31T03:46:13.198Z,973.74
2022-12-31T03:47:13.181Z,973.74
2022-12-31T03:48:13.168Z,973.72
2022-12-31T03:49:13.151Z,973.76
2022-12-31T03:50:13.123Z,973.71
2022-12-31T03:51:13.149Z,973.78
2022-12-31T03:52:13.080Z,973.83
2022-12-31T03:53:13.126Z,973.84
2022-12-31T03:54:13.081Z,973.86
2022-12-31T03:55:13.075Z,973.83
2022-12-31T03:56:13.059Z,973.79
2022-12-31T03:57:13.048Z,973.79
2022-12-31T03:58:13.018Z,973.79
2022-12-31T03:59:13.078Z,973.80
2022-12-31T04:00:12.994Z,973.79
2022-12-31T04:01:13.183Z,973.77
2022-12-31T04:02:13.191Z,973.70
2022-12-31T04:03:12.991Z,973.72
2022-12-31T04:04:12.986Z,973.68
2022-12-31T04:05:12.935Z,973.65
2022-12-31T04:06:12.929Z,973.63
2022-12-31T04:07:12.948Z,973.69
2022-12-31T04:08:12.896Z,973.69
2022-12-31T04:09:12.884Z,973.72
2022-12-31T04:10:12.895Z,973.68
2022-12-31T04:11:18.931Z,973.62
2022-12-31T04:12:13.839Z,973.70
2022-12-31T04:13:12.820Z,973.67
2022-12-31T04:14:12.847Z,973.69
2022-12-31T04:15:12.795Z,973.72
2022-12-31T04:16:12.832Z,973.68
2022-12-31T04:17:12.782Z,973.68
2022-12-31T04:18:12.788Z,973.63
2022-12-31T04:19:12.767Z,973.69
2022-12-31T04:20:12.776Z,973.70
2022-12-31T04:21:12.718Z,973.73
2022-12-31T04:22:12.740Z,973.71
2022-12-31T04:23:12.696Z,973.73
2022-12-31T04:24:12.701Z,973.70
2022-12-31T04:25:12.697Z,973.70
2022-12-31T04:26:12.693Z,973.72
2022-12-31T04:27:12.669Z,973.75
2022-12-31T04:28:12.642Z,973.76
2022-12-31T04:29:12.630Z,973.71
2022-12-31T04:30:12.708Z,973.67
2022-12-31T04:31:12.585Z,973.71
2022-12-31T04:32:12.615Z,973.74
2022-12-31T04:33:12.588Z,973.78
2022-12-31T04:34:12.609Z,973.67
2022-12-31T04:35:12.588Z,973.70
2022-12-31T04:36:12.557Z,973.75
2022-12-31T04:37:12.520Z,973.78
2022-12-31T04:38:12.534Z,973.75
2022-12-31T04:39:12.512Z,973.83
2022-12-31T04:40:12.519Z,973.77
2022-12-31T04:41:12.488Z,973.88
2022-12-31T04:42:12.549Z,973.82
2022-12-31T04:43:12.457Z,973.87
2022-12-31T04:44:12.476Z,973.86
2022-12-31T04:45:12.425Z,973.88
2022-12-31T04:46:12.505Z,973.83
2022-12-31T04:47:12.442Z,973.86
2022-12-31T04:48:12.423Z,973.88
2022-12-31T04:49:12.373Z,973.86
2022-12-31T04:50:12.406Z,973.88
2022-12-31T04:51:12.363Z,973.89
2022-12-31T04:52:12.423Z,973.93
2022-12-31T04:53:12.328Z,973.99
2022-12-31T04:54:12.322Z,974.04
2022-12-31T04:55:12.292Z,974.03
2022-12-31T04:56:12.331Z,974.03
2022-12-31T04:57:12.331Z,974.02
2022-12-31T04:58:12.274Z,973.97
2022-12-31T04:59:12.252Z,974.06
2022-12-31T05:00:12.286Z,974.06
2022-12-31T05:01:12.382Z,974.02
2022-12-31T05:02:12.413Z,974.03
2022-12-31T05:03:12.278Z,974.17
2022-12-31T05:04:12.248Z,974.11
2022-12-31T05:05:12.150Z,974.12
2022-12-31T05:06:12.186Z,974.08
2022-12-31T05:07:12.129Z,974.07
2022-12-31T05:08:12.134Z,974.18
2022-12-31T05:09:12.124Z,974.22
2022-12-31T05:10:12.113Z,974.19
2022-12-31T05:11:12.075Z,974.20
2022-12-31T05:12:12.082Z,974.23
2022-12-31T05:13:12.060Z,974.27
2022-12-31T05:14:12.097Z,974.24
2022-12-31T05:15:12.033Z,974.25
2022-12-31T05:16:12.096Z,974.21
2022-12-31T05:17:12.009Z,974.17
2022-12-31T05:18:12.018Z,974.13
2022-12-31T05:19:12.011Z,974.06
2022-12-31T05:20:12.153Z,974.01
2022-12-31T05:21:11.984Z,974.07
2022-12-31T05:22:12.001Z,973.99
2022-12-31T05:23:11.917Z,974.07
2022-12-31T05:24:11.949Z,974.05
2022-12-31T05:25:11.977Z,974.12
2022-12-31T05:26:11.944Z,974.14
2022-12-31T05:27:11.874Z,974.15
2022-12-31T05:28:11.920Z,974.17
2022-12-31T05:29:11.855Z,974.15
2022-12-31T05:30:11.874Z,974.15
2022-12-31T05:31:11.939Z,974.16
2022-12-31T05:32:11.852Z,974.13
2022-12-31T05:33:11.797Z,974.10
2022-12-31T05:34:11.840Z,974.07
2022-12-31T05:35:11.827Z,974.12
2022-12-31T05:36:11.814Z,974.05
2022-12-31T05:37:11.749Z,974.03
2022-12-31T05:38:11.765Z,974.06
2022-12-31T05:39:11.720Z,973.93
2022-12-31T05:40:11.815Z,973.92
2022-12-31T05:41:11.740Z,973.95
2022-12-31T05:42:11.699Z,973.95
2022-12-31T05:43:11.676Z,973.96
2022-12-31T05:44:11.724Z,973.96
2022-12-31T05:45:11.637Z,973.99
2022-12-31T05:46:11.692Z,974.00
2022-12-31T05:47:11.637Z,974.02
2022-12-31T05:48:11.690Z,974.02
2022-12-31T05:49:11.593Z,973.97
2022-12-31T05:50:11.594Z,973.95
2022-12-31T05:51:11.576Z,974.03
2022-12-31T05:52:11.587Z,973.99
2022-12-31T05:53:11.542Z,973.99
2022-12-31T05:54:11.595Z,974.07
2022-12-31T05:55:11.527Z,974.06
2022-12-31T05:56:11.534Z,974.06
2022-12-31T05:57:11.497Z,974.06
2022-12-31T05:58:11.507Z,974.21
2022-12-31T05:59:11.490Z,974.17
2022-12-31T06:00:11.518Z,974.17
2022-12-31T06:01:11.569Z,974.05
2022-12-31T06:02:11.444Z,974.07
2022-12-31T06:03:11.617Z,974.18
2022-12-31T06:04:11.462Z,974.25
2022-12-31T06:05:11.389Z,974.20
2022-12-31T06:06:11.390Z,974.21
2022-12-31T06:07:11.374Z,974.20
2022-12-31T06:08:11.384Z,974.29
2022-12-31T06:09:11.367Z,974.25
2022-12-31T06:10:11.375Z,974.33
2022-12-31T06:11:11.319Z,974.24
2022-12-31T06:12:11.346Z,974.26
2022-12-31T06:13:11.330Z,974.25
2022-12-31T06:14:11.304Z,974.30
2022-12-31T06:15:11.271Z,974.38
2022-12-31T06:16:11.360Z,974.35
2022-12-31T06:17:11.274Z,974.37
2022-12-31T06:18:11.241Z,974.37
2022-12-31T06:19:11.233Z,974.40
2022-12-31T06:20:13.351Z,974.36
2022-12-31T06:21:11.197Z,974.33
2022-12-31T06:22:11.259Z,974.29
2022-12-31T06:23:11.170Z,974.35
2022-12-31T06:24:11.169Z,974.37
2022-12-31T06:25:11.153Z,974.29
2022-12-31T06:26:11.156Z,974.32
2022-12-31T06:27:11.108Z,974.29
2022-12-31T06:28:16.133Z,974.25
2022-12-31T06:29:12.107Z,974.18
2022-12-31T06:30:11.095Z,974.20
2022-12-31T06:31:11.099Z,974.25
2022-12-31T06:32:11.066Z,974.21
2022-12-31T06:33:11.080Z,974.24
2022-12-31T06:34:11.045Z,974.23
2022-12-31T06:35:11.004Z,974.28
2022-12-31T06:36:11.008Z,974.29
2022-12-31T06:37:10.988Z,974.29
2022-12-31T06:38:11.002Z,974.34
2022-12-31T06:39:10.981Z,974.31
2022-12-31T06:40:11.159Z,974.40
2022-12-31T06:41:10.890Z,974.43
2022-12-31T06:42:10.933Z,974.44
2022-12-31T06:43:10.901Z,974.49
2022-12-31T06:44:10.906Z,974.46
2022-12-31T06:45:10.812Z,974.40
2022-12-31T06:46:10.944Z,974.40
2022-12-31T06:47:10.848Z,974.40
2022-12-31T06:48:10.887Z,974.43
2022-12-31T06:49:10.820Z,974.36
2022-12-31T06:50:10.800Z,974.38
2022-12-31T06:51:16.765Z,974.39
2022-12-31T06:52:11.749Z,974.39
2022-12-31T06:53:10.724Z,974.39
2022-12-31T06:54:10.765Z,974.40
2022-12-31T06:55:10.698Z,974.41
2022-12-31T06:56:10.694Z,974.47
2022-12-31T06:57:10.680Z,974.41
2022-12-31T06:58:10.664Z,974.48
2022-12-31T06:59:10.641Z,974.56
2022-12-31T07:00:11.682Z,974.51
2022-12-31T07:01:10.624Z,974.51
2022-12-31T07:02:10.657Z,974.54
2022-12-31T07:03:10.656Z,974.55
2022-12-31T07:04:10.593Z,974.58
2022-12-31T07:05:10.572Z,974.61
2022-12-31T07:06:10.613Z,974.59
2022-12-31T07:07:10.546Z,974.57
2022-12-31T07:08:10.567Z,974.61
2022-12-31T07:09:10.521Z,974.59
2022-12-31T07:10:10.518Z,974.53
2022-12-31T07:11:10.520Z,974.54
2022-12-31T07:12:10.486Z,974.55
2022-12-31T07:13:10.477Z,974.55
2022-12-31T07:14:10.477Z,974.55
2022-12-31T07:15:10.450Z,974.53
2022-12-31T07:16:10.611Z,974.52
2022-12-31T07:17:10.404Z,974.54
2022-12-31T07:18:10.455Z,974.54
2022-12-31T07:19:10.388Z,974.56
2022-12-31T07:20:10.404Z,974.59
2022-12-31T07:21:10.353Z,974.54
2022-12-31T07:22:10.391Z,974.57
2022-12-31T07:23:10.338Z,974.63
2022-12-31T07:24:10.379Z,974.59
2022-12-31T07:25:10.305Z,974.54
2022-12-31T07:26:10.305Z,974.52
2022-12-31T07:27:10.311Z,974.48
2022-12-31T07:28:10.298Z,974.52
2022-12-31T07:29:10.258Z,974.52
2022-12-31T07:30:10.309Z,974.57
2022-12-31T07:31:10.281Z,974.58
2022-12-31T07:32:10.253Z,974.54
2022-12-31T07:33:10.237Z,974.54
2022-12-31T07:34:10.207Z,974.54
2022-12-31T07:35:10.196Z,974.54
2022-12-31T07:36:10.209Z,974.50
2022-12-31T07:37:10.157Z,974.52
2022-12-31T07:38:10.166Z,974.51
2022-12-31T07:39:10.154Z,974.48
2022-12-31T07:40:10.176Z,974.50
2022-12-31T07:41:10.419Z,974.49
2022-12-31T07:42:17.147Z,974.51
2022-12-31T07:43:10.085Z,974.52
2022-12-31T07:44:10.086Z,974.58
2022-12-31T07:45:10.052Z,974.66
2022-12-31T07:46:10.125Z,974.68
2022-12-31T07:47:10.049Z,974.72
2022-12-31T07:48:10.036Z,974.74
2022-12-31T07:49:09.992Z,974.73
2022-12-31T07:50:10.024Z,974.80
2022-12-31T07:51:09.971Z,974.87
2022-12-31T07:52:10.013Z,974.89
2022-12-31T07:53:09.971Z,974.81
2022-12-31T07:54:13.917Z,974.75
2022-12-31T07:55:09.923Z,974.73
2022-12-31T07:56:09.926Z,974.76
2022-12-31T07:57:09.902Z,974.77
2022-12-31T07:58:09.929Z,974.82
2022-12-31T07:59:09.869Z,974.85
2022-12-31T08:00:09.951Z,974.90
2022-12-31T08:01:09.990Z,974.92
2022-12-31T08:02:10.001Z,974.85
2022-12-31T08:03:09.839Z,974.94
2022-12-31T08:04:09.818Z,975.00
2022-12-31T08:05:09.788Z,974.95
2022-12-31T08:06:09.816Z,974.98
2022-12-31T08:07:09.766Z,975.01
2022-12-31T08:08:09.786Z,975.05
2022-12-31T08:09:09.756Z,975.11
2022-12-31T08:10:15.619Z,975.06
2022-12-31T08:11:10.732Z,975.03
2022-12-31T08:12:09.723Z,975.03
2022-12-31T08:13:09.714Z,975.06
2022-12-31T08:14:09.735Z,975.05
2022-12-31T08:15:09.666Z,975.06
2022-12-31T08:16:09.693Z,975.04
2022-12-31T08:17:09.651Z,975.11
2022-12-31T08:18:09.625Z,975.07
2022-12-31T08:19:09.622Z,975.11
2022-12-31T08:20:09.617Z,975.08
2022-12-31T08:21:09.624Z,975.16
2022-12-31T08:22:09.590Z,975.11
2022-12-31T08:23:09.582Z,975.13
2022-12-31T08:24:09.575Z,975.04
2022-12-31T08:25:09.547Z,975.08
2022-12-31T08:26:09.546Z,975.07
2022-12-31T08:27:09.526Z,975.06
2022-12-31T08:28:09.506Z,975.07
2022-12-31T08:29:09.510Z,975.04
2022-12-31T08:30:09.470Z,975.09
2022-12-31T08:31:09.520Z,975.03
2022-12-31T08:32:09.473Z,974.97
2022-12-31T08:33:09.450Z,975.05
2022-12-31T08:34:09.426Z,975.08
2022-12-31T08:35:09.420Z,974.90
2022-12-31T08:36:09.397Z,975.07
2022-12-31T08:37:09.433Z,975.07
2022-12-31T08:38:09.375Z,975.00
2022-12-31T08:39:09.401Z,975.03
2022-12-31T08:40:09.344Z,975.06
2022-12-31T08:41:09.357Z,975.03
2022-12-31T08:42:09.309Z,975.09
2022-12-31T08:43:09.340Z,975.08
2022-12-31T08:44:09.280Z,975.14
2022-12-31T08:45:09.298Z,975.14
2022-12-31T08:46:09.293Z,975.14
2022-12-31T08:47:09.279Z,975.21
2022-12-31T08:48:09.257Z,975.23
2022-12-31T08:49:09.259Z,975.16
2022-12-31T08:50:09.245Z,975.19
2022-12-31T08:51:09.215Z,975.23
2022-12-31T08:52:09.189Z,975.16
2022-12-31T08:53:09.183Z,975.13
2022-12-31T08:54:09.168Z,975.14
2022-12-31T08:55:09.213Z,975.11
2022-12-31T08:56:09.123Z,975.02
2022-12-31T08:57:09.154Z,975.08
2022-12-31T08:58:09.102Z,975.03
2022-12-31T08:59:09.122Z,974.96
2022-12-31T09:00:09.090Z,974.99
2022-12-31T09:01:09.184Z,975.07
2022-12-31T09:02:09.162Z,975.07
2022-12-31T09:03:09.073Z,975.02
2022-12-31T09:04:09.123Z,975.08
2022-12-31T09:05:09.027Z,975.06
2022-12-31T09:06:08.998Z,975.04
2022-12-31T09:07:09.020Z,975.01
2022-12-31T09:08:08.992Z,975.01
2022-12-31T09:09:08.985Z,975.01
2022-12-31T09:10:08.967Z,974.96
2022-12-31T09:11:08.966Z,975.01
2022-12-31T09:12:08.945Z,975.02
2022-12-31T09:13:08.924Z,975.04
2022-12-31T09:14:08.906Z,975.01
2022-12-31T09:15:08.895Z,974.98
2022-12-31T09:16:08.915Z,974.96
2022-12-31T09:17:08.895Z,975.03
2022-12-31T09:18:08.859Z,975.02
2022-12-31T09:19:08.872Z,974.99
2022-12-31T09:20:08.837Z,975.05
2022-12-31T09:21:08.850Z,975.08
2022-12-31T09:22:08.791Z,975.05
2022-12-31T09:23:08.810Z,975.08
2022-12-31T09:24:09.601Z,975.11
2022-12-31T09:25:08.787Z,975.11
2022-12-31T09:26:08.769Z,975.05
2022-12-31T09:27:08.755Z,975.04
2022-12-31T09:28:08.717Z,975.07
2022-12-31T09:29:08.792Z,975.07
2022-12-31T09:30:08.694Z,975.06
2022-12-31T09:31:08.723Z,975.05
2022-12-31T09:32:08.700Z,975.04
2022-12-31T09:33:08.690Z,975.09
2022-12-31T09:34:08.655Z,974.98
2022-12-31T09:35:08.664Z,975.00
2022-12-31T09:36:08.623Z,974.96
2022-12-31T09:37:08.654Z,975.01
2022-12-31T09:38:11.712Z,975.06
2022-12-31T09:39:08.622Z,974.97
2022-12-31T09:40:08.562Z,974.97
2022-12-31T09:41:08.691Z,974.96
2022-12-31T09:42:08.541Z,975.02
2022-12-31T09:43:08.560Z,974.96
2022-12-31T09:44:08.511Z,975.00
2022-12-31T09:45:08.541Z,974.98
2022-12-31T09:46:08.544Z,974.90
2022-12-31T09:47:08.518Z,974.95
2022-12-31T09:48:08.462Z,974.97
2022-12-31T09:49:08.473Z,974.98
2022-12-31T09:50:08.439Z,975.00
2022-12-31T09:51:08.482Z,974.96
2022-12-31T09:52:08.415Z,974.92
2022-12-31T09:53:08.428Z,974.87
2022-12-31T09:54:08.409Z,974.89
2022-12-31T09:55:08.408Z,974.87
2022-12-31T09:56:08.396Z,974.88
2022-12-31T09:57:08.376Z,974.85
2022-12-31T09:58:08.336Z,974.84
2022-12-31T09:59:08.354Z,974.84
2022-12-31T10:00:08.336Z,974.84
2022-12-31T10:01:08.444Z,974.82
2022-12-31T10:02:08.540Z,974.82
2022-12-31T10:03:08.362Z,974.80
2022-12-31T10:04:08.267Z,974.79
2022-12-31T10:05:08.282Z,974.77
2022-12-31T10:06:08.238Z,974.80
2022-12-31T10:07:08.255Z,974.81
2022-12-31T10:08:08.231Z,974.81
2022-12-31T10:09:08.240Z,974.81
2022-12-31T10:10:08.185Z,974.82
2022-12-31T10:11:08.193Z,974.80
2022-12-31T10:12:08.179Z,974.72
2022-12-31T10:13:08.159Z,974.73
2022-12-31T10:14:08.128Z,974.78
2022-12-31T10:15:08.128Z,974.71
2022-12-31T10:16:08.102Z,974.82
2022-12-31T10:17:08.119Z,974.75
2022-12-31T10:18:08.117Z,974.81
2022-12-31T10:19:08.114Z,974.76
2022-12-31T10:20:08.055Z,974.77
2022-12-31T10:21:08.076Z,974.73
2022-12-31T10:22:08.029Z,974.71
2022-12-31T10:23:08.071Z,974.69
2022-12-31T10:24:08.003Z,974.68
2022-12-31T10:25:08.015Z,974.64
2022-12-31T10:26:07.985Z,974.65
2022-12-31T10:27:07.973Z,974.60
2022-12-31T10:28:07.973Z,974.62
2022-12-31T10:29:08.031Z,974.61
2022-12-31T10:30:07.911Z,974.59
2022-12-31T10:31:08.101Z,974.55
2022-12-31T10:32:07.912Z,974.54
2022-12-31T10:33:07.928Z,974.50
2022-12-31T10:34:07.868Z,974.52
2022-12-31T10:35:07.929Z,974.48
2022-12-31T10:36:07.839Z,974.52
2022-12-31T10:37:07.925Z,974.56
2022-12-31T10:38:07.808Z,974.47
2022-12-31T10:39:13.495Z,974.36
2022-12-31T10:40:08.837Z,974.42
2022-12-31T10:41:07.834Z,974.39
2022-12-31T10:42:07.772Z,974.38
2022-12-31T10:43:07.779Z,974.36
2022-12-31T10:44:07.756Z,974.33
2022-12-31T10:45:07.748Z,974.35
2022-12-31T10:46:07.729Z,974.33
2022-12-31T10:47:07.772Z,974.32
2022-12-31T10:48:07.689Z,974.33
2022-12-31T10:49:07.699Z,974.34
2022-12-31T10:50:07.664Z,974.34
2022-12-31T10:51:07.679Z,974.33
2022-12-31T10:52:07.663Z,974.31
2022-12-31T10:53:07.656Z,974.33
2022-12-31T10:54:07.600Z,974.34
2022-12-31T10:55:07.638Z,974.34
2022-12-31T10:56:07.592Z,974.30
2022-12-31T10:57:07.592Z,974.28
2022-12-31T10:58:07.578Z,974.31
2022-12-31T10:59:07.577Z,974.31
2022-12-31T11:00:07.528Z,974.35
2022-12-31T11:01:07.664Z,974.32
2022-12-31T11:02:07.778Z,974.33
2022-12-31T11:03:07.552Z,974.35
2022-12-31T11:04:07.479Z,974.30
2022-12-31T11:05:07.523Z,974.31
2022-12-31T11:06:07.446Z,974.28
2022-12-31T11:07:07.468Z,974.31
2022-12-31T11:08:07.433Z,974.27
2022-12-31T11:09:07.442Z,974.26
2022-12-31T11:10:07.435Z,974.20
2022-12-31T11:11:07.404Z,974.21
2022-12-31T11:12:07.374Z,974.21
2022-12-31T11:13:07.394Z,974.16
2022-12-31T11:14:07.380Z,974.15
2022-12-31T11:15:07.365Z,974.19
2022-12-31T11:16:07.379Z,974.16
2022-12-31T11:17:07.330Z,974.15
2022-12-31T11:18:07.308Z,974.18
2022-12-31T11:19:07.324Z,974.13
2022-12-31T11:20:07.275Z,974.13
2022-12-31T11:21:07.279Z,974.13
2022-12-31T11:22:07.289Z,974.08
2022-12-31T11:23:07.269Z,974.08
2022-12-31T11:24:07.222Z,974.03
2022-12-31T11:25:07.240Z,974.06
2022-12-31T11:26:07.200Z,974.09
2022-12-31T11:27:07.207Z,974.09
2022-12-31T11:28:07.196Z,973.99
2022-12-31T11:29:07.189Z,973.99
2022-12-31T11:30:07.146Z,973.97
2022-12-31T11:31:07.209Z,973.97
2022-12-31T11:32:07.126Z,973.98
2022-12-31T11:33:07.196Z,973.98
2022-12-31T11:34:07.105Z,974.00
2022-12-31T11:35:07.160Z,973.97
2022-12-31T11:36:07.083Z,973.98
2022-12-31T11:37:07.141Z,973.97
2022-12-31T11:38:07.057Z,973.94
2022-12-31T11:39:07.173Z,973.95
2022-12-31T11:40:07.042Z,973.95
2022-12-31T11:41:07.071Z,973.97
2022-12-31T11:42:07.030Z,974.01
2022-12-31T11:43:07.071Z,973.98
2022-12-31T11:44:06.987Z,974.04
2022-12-31T11:45:06.979Z,974.03
2022-12-31T11:46:06.958Z,973.94
2022-12-31T11:47:06.973Z,973.98
2022-12-31T11:49:07.953Z,973.93
2022-12-31T11:50:06.939Z,973.94
2022-12-31T11:51:06.910Z,973.90
2022-12-31T11:52:06.929Z,973.89
2022-12-31T11:53:06.922Z,973.82
2022-12-31T11:54:06.878Z,973.85
2022-12-31T11:55:06.880Z,973.89
2022-12-31T11:56:06.814Z,973.84
2022-12-31T11:57:06.932Z,973.83
2022-12-31T11:58:06.805Z,973.80
2022-12-31T11:59:11.045Z,973.79
2022-12-31T12:00:07.793Z,973.84
2022-12-31T12:01:06.858Z,973.76
2022-12-31T12:02:06.740Z,973.77
2022-12-31T12:03:06.827Z,973.77
2022-12-31T12:04:06.794Z,973.77
2022-12-31T12:05:11.032Z,973.70
2022-12-31T12:06:06.682Z,973.72
2022-12-31T12:07:06.741Z,973.68
2022-12-31T12:08:06.659Z,973.69
2022-12-31T12:09:06.688Z,973.68
2022-12-31T12:10:06.628Z,973.67
2022-12-31T12:11:06.668Z,973.68
2022-12-31T12:12:06.627Z,973.59
2022-12-31T12:13:06.627Z,973.60
2022-12-31T12:14:06.579Z,973.62
2022-12-31T12:15:06.598Z,973.59
2022-12-31T12:16:06.614Z,973.61
2022-12-31T12:17:06.587Z,973.61
2022-12-31T12:18:06.558Z,973.57
2022-12-31T12:19:06.536Z,973.52
2022-12-31T12:20:06.505Z,973.58
2022-12-31T12:21:06.502Z,973.51
2022-12-31T12:22:06.473Z,973.48
2022-12-31T12:23:06.524Z,973.51
2022-12-31T12:24:06.458Z,973.54
2022-12-31T12:25:06.463Z,973.50
2022-12-31T12:26:06.427Z,973.45
2022-12-31T12:27:06.451Z,973.43
2022-12-31T12:28:06.399Z,973.42
2022-12-31T12:29:06.449Z,973.39